Time;durP1;ratioP1;P1;durP2;ratioP2;P2;SDS_P1;SDS_P2;PMS_P1;PMS_P2;Temp;Humidity;BMP_temperature;BMP_pressure;BME280_temperature;BME280_humidity;BME280_pressure;Samples;Min_cycle;Max_cycle;Signal;HPM_P1;HPM_P2
2022/05/26 00:01:36;;;;;;;5.28;4.22;;;;;;;15.11;100.00;91223.94;5051454;28;20100;-72
2022/05/26 00:04:02;;;;;;;7.13;4.07;;;;;;;15.23;100.00;91226.69;5051394;28;20063;-72
2022/05/26 00:06:29;;;;;;;10.43;5.22;;;;;;;15.19;100.00;91223.09;5050193;28;20528;-72
2022/05/26 00:08:55;;;;;;;8.10;4.05;;;;;;;15.34;100.00;91220.94;5051319;28;20031;-71
2022/05/26 00:11:26;;;;;;;11.93;4.25;;;;;;;15.42;100.00;91217.38;5051341;28;20107;-71
2022/05/26 00:13:53;;;;;;;6.55;4.18;;;;;;;15.41;100.00;91221.16;5048316;28;20120;-71
2022/05/26 00:16:18;;;;;;;8.23;5.13;;;;;;;15.52;100.00;91233.84;5049891;28;20029;-71
2022/05/26 00:18:44;;;;;;;5.57;4.13;;;;;;;15.39;100.00;91218.03;5051248;28;20028;-70
2022/05/26 00:21:10;;;;;;;9.75;4.20;;;;;;;15.11;100.00;91221.28;5051188;28;20517;-71
2022/05/26 00:23:35;;;;;;;7.28;3.83;;;;;;;14.89;100.00;91216.28;5051143;28;20036;-71
2022/05/26 00:26:01;;;;;;;4.57;3.28;;;;;;;14.77;100.00;91216.19;5049900;28;20029;-72
2022/05/26 00:28:26;;;;;;;5.00;3.55;;;;;;;14.73;100.00;91209.94;5051026;28;20029;-71
2022/05/26 00:30:53;;;;;;;8.63;5.40;;;;;;;14.74;100.00;91208.81;5051076;28;20029;-71
2022/05/26 00:33:19;;;;;;;9.52;5.65;;;;;;;14.85;100.00;91218.03;5051103;28;20021;-72
2022/05/26 00:35:45;;;;;;;9.50;5.65;;;;;;;14.89;100.00;91213.59;5049649;28;20033;-72
2022/05/26 00:38:13;;;;;;;8.00;5.68;;;;;;;14.94;100.00;91208.81;5050763;28;20051;-73
2022/05/26 00:40:40;;;;;;;10.32;6.53;;;;;;;14.91;100.00;91208.69;5050660;28;20029;-72
2022/05/26 00:43:06;;;;;;;13.07;6.38;;;;;;;14.92;100.00;91210.25;5051007;28;20029;-72
2022/05/26 00:45:56;;;;;;;10.82;6.60;;;;;;;14.87;100.00;91218.50;5049649;28;20573;-72
2022/05/26 00:48:26;;;;;;;11.77;6.80;;;;;;;14.91;100.00;91224.75;5030919;28;20549;-72
2022/05/26 00:50:58;;;;;;;16.02;8.25;;;;;;;14.82;100.00;91226.72;5031188;28;20091;-72
2022/05/26 00:53:24;;;;;;;12.40;7.40;;;;;;;14.78;100.00;91223.13;5031045;28;20052;-72
2022/05/26 00:56:04;;;;;;;15.48;7.10;;;;;;;14.74;100.00;91219.53;5017694;28;20516;-72
2022/05/26 00:58:35;;;;;;;9.95;6.53;;;;;;;14.69;100.00;91212.47;5050885;28;20039;-72
2022/05/26 01:01:02;;;;;;;12.60;7.38;;;;;;;14.62;100.00;91212.19;5050749;28;20094;-72
2022/05/26 01:03:53;;;;;;;12.68;6.75;;;;;;;14.54;100.00;91210.38;5050719;28;20029;-72
2022/05/26 01:06:25;;;;;;;11.02;7.50;;;;;;;14.50;100.00;91220.94;5049413;28;20048;-72
2022/05/26 01:08:55;;;;;;;8.68;5.88;;;;;;;14.50;100.00;91215.59;5050606;28;20521;-73
2022/05/26 01:11:23;;;;;;;7.32;5.25;;;;;;;14.53;100.00;91212.28;5050630;28;20524;-72
2022/05/26 01:13:55;;;;;;;8.95;5.18;;;;;;;14.64;100.00;91223.38;5050880;28;20029;-72
2022/05/26 01:16:40;;;;;;;9.55;5.55;;;;;;;14.70;100.00;91213.28;5049272;28;20048;-71
2022/05/26 01:19:36;;;;;;;7.47;4.63;;;;;;;14.78;100.00;91210.50;5050627;28;20130;-71
2022/05/26 01:22:42;;;;;;;9.63;4.85;;;;;;;15.00;100.00;91222.81;5050528;28;20033;-72
2022/05/26 01:25:22;;;;;;;7.90;4.07;;;;;;;15.16;100.00;91220.31;5050165;28;20110;-72
2022/05/26 01:27:59;;;;;;;11.02;4.93;;;;;;;15.29;100.00;91216.53;5050030;28;20040;-71
2022/05/26 01:30:39;;;;;;;8.38;3.97;;;;;;;15.22;100.00;91206.38;5032625;28;20108;-72
2022/05/26 01:33:23;;;;;;;7.10;3.47;;;;;;;15.14;100.00;91211.78;5050460;28;20039;-72
2022/05/26 01:36:07;;;;;;;5.47;3.83;;;;;;;15.07;100.00;91212.34;5049157;28;20434;-72
2022/05/26 01:38:46;;;;;;;4.03;3.38;;;;;;;15.01;100.00;91208.28;5050313;28;20102;-72
2022/05/26 01:41:43;;;;;;;4.97;3.20;;;;;;;15.02;100.00;91211.75;5050380;28;20035;-71
2022/05/26 01:44:09;;;;;;;4.30;2.92;;;;;;;15.01;100.00;91213.66;5050343;28;20052;-71
2022/05/26 01:46:43;;;;;;;8.45;3.10;;;;;;;14.96;100.00;91211.16;5049221;28;20503;-71
2022/05/26 01:49:14;;;;;;;5.25;3.20;;;;;;;14.97;100.00;91226.13;5050455;28;20028;-71
2022/05/26 01:51:54;;;;;;;6.03;2.72;;;;;;;14.88;100.00;91222.75;5051968;28;20037;-71
2022/05/26 01:54:40;;;;;;;4.25;2.83;;;;;;;14.82;100.00;91224.03;5053802;28;20032;-70
2022/05/26 01:57:45;;;;;;;4.80;3.42;;;;;;;14.68;100.00;91221.63;5052486;28;20119;-71
2022/05/26 02:00:17;;;;;;;6.13;2.90;;;;;;;14.79;100.00;91233.50;5053661;28;20040;-69
2022/05/26 02:02:52;;;;;;;6.13;2.92;;;;;;;14.66;100.00;91240.66;5053925;28;20032;-70
2022/05/26 02:05:21;;;;;;;7.05;3.00;;;;;;;14.63;100.00;91241.31;5053098;28;20052;-70
2022/05/26 02:08:04;;;;;;;5.25;3.85;;;;;;;14.63;100.00;91252.03;5053191;28;20043;-69
2022/05/26 02:10:36;;;;;;;5.88;3.78;;;;;;;14.57;100.00;91253.34;5053607;28;20060;-69
2022/05/26 02:13:05;;;;;;;7.75;4.03;;;;;;;14.57;100.00;91264.06;5053438;28;20529;-69
2022/05/26 02:15:41;;;;;;;5.40;3.58;;;;;;;14.65;100.00;91255.19;5052362;28;20044;-70
2022/05/26 02:18:29;;;;;;;5.68;4.47;;;;;;;14.75;100.00;91256.69;5033384;28;20052;-69
2022/05/26 02:20:56;;;;;;;10.50;4.90;;;;;;;14.85;100.00;91250.19;5033228;28;20422;-70
2022/05/26 02:23:34;;;;;;;7.53;4.78;;;;;;;14.99;100.00;91269.47;5033461;28;20032;-70
2022/05/26 02:26:01;;;;;;;8.98;5.18;;;;;;;15.06;100.00;91272.41;5039348;28;20142;-70
2022/05/26 02:28:28;;;;;;;7.45;5.07;;;;;;;15.08;100.00;91275.53;5053258;28;20048;-70
2022/05/26 02:30:55;;;;;;;10.75;5.15;;;;;;;15.03;100.00;91283.78;5053194;28;20033;-70
2022/05/26 02:33:22;;;;;;;7.50;5.57;;;;;;;14.87;100.00;91270.16;5053177;28;20032;-72
2022/05/26 02:35:51;;;;;;;7.18;4.90;;;;;;;14.89;100.00;91269.84;5051734;28;20116;-72
2022/05/26 02:38:21;;;;;;;6.80;4.80;;;;;;;14.89;100.00;91272.53;5052895;28;20051;-71
2022/05/26 02:40:48;;;;;;;6.00;4.80;;;;;;;14.86;100.00;91259.78;5052958;28;20032;-71
2022/05/26 02:43:19;;;;;;;7.28;4.90;;;;;;;14.75;100.00;91272.75;5052961;28;20123;-69
2022/05/26 02:46:09;;;;;;;8.85;5.10;;;;;;;14.74;100.00;91273.09;5051590;28;20509;-69
2022/05/26 02:49:02;;;;;;;7.03;4.60;;;;;;;14.71;100.00;91276.44;5052821;28;20498;-69
2022/05/26 02:51:42;;;;;;;9.20;5.07;;;;;;;14.65;100.00;91273.13;5052846;28;20029;-70
2022/05/26 02:54:20;;;;;;;9.00;4.82;;;;;;;14.66;100.00;91283.53;5052598;28;20263;-69
2022/05/26 02:56:54;;;;;;;7.18;5.13;;;;;;;14.74;100.00;91281.13;5052434;28;20059;-69
2022/05/26 02:59:38;;;;;;;5.68;4.70;;;;;;;14.76;100.00;91281.59;5052837;28;20041;-70
2022/05/26 03:02:23;;;;;;;8.55;4.88;;;;;;;14.76;100.00;91262.84;5052469;28;20032;-70
2022/05/26 03:04:58;;;;;;;9.52;5.65;;;;;;;14.73;100.00;91269.63;5052551;28;20027;-70
2022/05/26 03:07:27;;;;;;;5.18;4.57;;;;;;;14.91;100.00;91284.47;5052635;28;20057;-70
2022/05/26 03:09:53;;;;;;;7.82;4.40;;;;;;;15.04;100.00;91279.97;5052563;28;20062;-70
2022/05/26 03:12:26;;;;;;;8.65;4.57;;;;;;;14.94;100.00;91277.69;5052530;28;20025;-71
2022/05/26 03:14:51;;;;;;;6.75;4.45;;;;;;;14.91;100.00;91279.13;5052330;28;20033;-70
2022/05/26 03:17:17;;;;;;;5.97;4.13;;;;;;;14.67;100.00;91282.44;5052413;28;20021;-70
2022/05/26 03:19:43;;;;;;;5.15;3.65;;;;;;;14.67;100.00;91277.09;5052362;28;20525;-70
2022/05/26 03:22:08;;;;;;;7.13;3.92;;;;;;;14.71;100.00;91281.78;5052343;28;20048;-70
2022/05/26 03:24:34;;;;;;;11.40;4.60;;;;;;;14.73;100.00;91276.88;5052263;28;20040;-70
2022/05/26 03:26:59;;;;;;;10.50;4.40;;;;;;;14.79;100.00;91286.28;5052108;28;20037;-70
2022/05/26 03:29:24;;;;;;;5.90;3.72;;;;;;;15.03;100.00;91281.09;5052191;28;20067;-71
2022/05/26 03:31:50;;;;;;;5.45;3.92;;;;;;;15.10;100.00;91286.69;5052351;28;20033;-71
2022/05/26 03:42:28;;;;;;;5.07;3.70;;;;;;;15.80;100.00;91295.75;5052255;28;20418;-70
2022/05/26 03:44:54;;;;;;;6.60;4.00;;;;;;;15.93;100.00;91290.41;5051674;28;20029;-71
2022/05/26 03:47:20;;;;;;;8.60;3.72;;;;;;;16.15;100.00;91292.72;5052106;28;20029;-71
2022/05/26 03:49:45;;;;;;;5.15;3.90;;;;;;;16.39;100.00;91300.00;5051821;28;20537;-72
2022/05/26 03:52:10;;;;;;;7.30;3.83;;;;;;;16.59;100.00;91287.59;5051728;28;20446;-71
2022/05/26 03:54:36;;;;;;;6.55;3.17;;;;;;;16.77;100.00;91294.34;5051523;28;20033;-72
2022/05/26 03:57:03;;;;;;;8.63;3.42;;;;;;;16.89;100.00;91293.56;5051617;28;20403;-72
2022/05/26 03:59:29;;;;;;;4.40;2.72;;;;;;;16.98;100.00;91297.66;5051599;28;20025;-72
2022/05/26 04:01:55;;;;;;;4.47;3.30;;;;;;;17.03;100.00;91289.38;5051344;28;20534;-73
2022/05/26 04:04:20;;;;;;;3.83;3.25;;;;;;;17.04;100.00;91301.72;5051124;28;20033;-73
2022/05/26 04:06:46;;;;;;;5.80;3.35;;;;;;;16.98;100.00;91284.22;5051315;28;20025;-72
2022/05/26 04:09:11;;;;;;;4.68;3.47;;;;;;;17.02;100.00;91284.31;5051452;28;20497;-72
2022/05/26 04:11:37;;;;;;;7.18;3.85;;;;;;;17.05;100.00;91297.13;5051456;28;20024;-71
2022/05/26 04:14:02;;;;;;;5.15;3.25;;;;;;;17.07;100.00;91300.25;5032755;28;20052;-71
2022/05/26 04:16:28;;;;;;;6.18;3.50;;;;;;;17.04;100.00;91290.16;5051223;28;20021;-73
2022/05/26 04:18:53;;;;;;;4.15;3.33;;;;;;;17.16;100.00;91300.09;5051101;28;20044;-72
2022/05/26 04:21:20;;;;;;;9.15;3.60;;;;;;;17.23;100.00;91303.78;5051166;28;20150;-72
2022/05/26 04:23:45;;;;;;;5.70;3.17;;;;;;;17.31;100.00;91310.16;5051115;28;20036;-71
2022/05/26 04:26:11;;;;;;;3.72;3.08;;;;;;;17.46;100.00;91311.34;5051088;28;20041;-71
2022/05/26 04:28:37;;;;;;;4.28;2.75;;;;;;;17.61;100.00;91318.69;5051030;28;20052;-73
2022/05/26 04:31:03;;;;;;;4.70;3.55;;;;;;;17.74;100.00;91314.88;5051133;28;20033;-72
2022/05/26 04:33:29;;;;;;;4.10;3.28;;;;;;;17.80;100.00;91310.81;5051134;28;20100;-73
2022/05/26 04:35:56;;;;;;;3.65;2.90;;;;;;;18.08;100.00;91335.03;5050967;28;20490;-72
2022/05/26 04:38:22;;;;;;;4.97;3.50;;;;;;;18.23;100.00;91325.41;5050996;28;20074;-72
2022/05/26 04:40:58;;;;;;;8.80;3.45;;;;;;;18.38;100.00;91334.66;5050999;28;20388;-72
2022/05/26 04:43:24;;;;;;;5.97;3.97;;;;;;;18.56;100.00;91333.97;5051087;28;20167;-73
2022/05/26 04:45:50;;;;;;;7.00;3.33;;;;;;;18.75;100.00;91335.22;5051032;28;20546;-73
2022/05/26 04:48:17;;;;;;;7.30;4.00;;;;;;;18.75;100.00;91330.59;5050988;28;20062;-73
2022/05/26 04:50:42;;;;;;;7.28;4.75;;;;;;;18.68;100.00;91346.63;5050808;28;20085;-73
2022/05/26 04:53:08;;;;;;;7.60;4.18;;;;;;;18.93;100.00;91341.81;5050798;28;20455;-73
2022/05/26 04:55:33;;;;;;;10.35;5.25;;;;;;;19.10;100.00;91343.38;5050612;28;20510;-73
2022/05/26 04:57:59;;;;;;;7.72;3.72;;;;;;;19.25;94.95;91352.56;5050721;28;20048;-73
2022/05/26 05:00:24;;;;;;;9.65;4.40;;;;;;;19.45;90.30;91351.50;5050602;28;20040;-74
2022/05/26 05:02:50;;;;;;;5.82;3.75;;;;;;;19.74;86.59;91351.00;5050680;28;20074;-74
2022/05/26 05:05:15;;;;;;;9.50;4.97;;;;;;;19.89;85.12;91364.81;5050446;28;20516;-74
2022/05/26 05:07:41;;;;;;;5.25;3.38;;;;;;;20.21;84.26;91357.34;5050941;28;20114;-73
2022/05/26 05:10:07;;;;;;;17.98;5.10;;;;;;;20.21;81.07;91360.81;5050850;28;20381;-73
2022/05/26 05:12:33;;;;;;;8.00;3.83;;;;;;;20.23;79.01;91352.34;5050745;28;20029;-73
2022/05/26 05:14:59;;;;;;;10.80;3.97;;;;;;;20.78;77.05;91350.28;5050672;28;20033;-72
2022/05/26 05:17:25;;;;;;;10.05;3.78;;;;;;;21.12;73.90;91352.00;5050725;28;20029;-72
2022/05/26 05:19:51;;;;;;;7.72;4.63;;;;;;;21.57;71.82;91358.50;5050770;28;20040;-71
2022/05/26 05:22:46;;;;;;;10.85;3.38;;;;;;;21.45;70.53;91353.28;5050727;28;20032;-70
2022/05/26 05:25:23;;;;;;;5.97;3.15;;;;;;;21.20;72.24;91350.97;5051412;28;20032;-71
2022/05/26 05:27:54;;;;;;;10.55;4.35;;;;;;;21.26;71.85;91348.75;5054233;28;20498;-72
2022/05/26 05:30:26;;;;;;;6.72;3.50;;;;;;;21.83;69.73;91353.06;5054304;28;20703;-71
2022/05/26 05:32:59;;;;;;;6.82;3.60;;;;;;;22.93;65.09;91350.88;5054254;28;20033;-73
2022/05/26 05:35:32;;;;;;;10.95;4.72;;;;;;;24.58;59.89;91350.75;5054102;28;20033;-71
2022/05/26 05:37:58;;;;;;;6.07;3.20;;;;;;;27.11;53.12;91366.78;5054039;28;20037;-70
2022/05/26 05:40:24;;;;;;;7.50;4.07;;;;;;;29.15;49.04;91367.16;5054109;28;20090;-71
2022/05/26 05:42:50;;;;;;;18.20;4.57;;;;;;;30.21;43.18;91349.47;5054165;28;20043;-72
2022/05/26 05:45:15;;;;;;;11.95;4.07;;;;;;;31.13;41.69;91355.88;5054005;28;20033;-73
2022/05/26 05:47:41;;;;;;;10.05;4.13;;;;;;;32.13;39.38;91350.81;5054048;28;20040;-72
2022/05/26 05:50:06;;;;;;;5.53;3.47;;;;;;;33.61;37.04;91358.09;5054142;28;20025;-73
2022/05/26 05:52:34;;;;;;;8.55;3.90;;;;;;;34.31;35.64;91359.03;5053942;28;20108;-73
2022/05/26 05:55:00;;;;;;;6.60;3.78;;;;;;;35.08;35.60;91360.31;5053921;28;20048;-73
2022/05/26 05:57:25;;;;;;;4.43;3.47;;;;;;;36.02;34.08;91366.66;5053893;28;20079;-69
2022/05/26 05:59:51;;;;;;;8.13;3.50;;;;;;;36.47;33.66;91364.00;5053858;28;20040;-70
2022/05/26 06:02:16;;;;;;;9.35;4.13;;;;;;;36.59;33.36;91362.28;5053934;28;20025;-71
2022/05/26 06:04:42;;;;;;;14.57;5.03;;;;;;;36.64;33.64;91369.25;5053704;28;20029;-72
2022/05/26 06:07:13;;;;;;;9.38;5.13;;;;;;;36.55;33.55;91365.22;5053873;28;20021;-72
2022/05/26 06:09:39;;;;;;;8.27;5.05;;;;;;;36.75;32.25;91373.06;5053784;28;20035;-72
2022/05/26 06:12:05;;;;;;;6.65;4.85;;;;;;;36.91;32.25;91380.34;5053731;28;20108;-72
2022/05/26 06:14:31;;;;;;;8.95;6.53;;;;;;;35.35;33.82;91379.06;5053517;28;20037;-72
2022/05/26 06:16:56;;;;;;;6.55;3.78;;;;;;;33.75;35.44;91373.44;5053546;28;20028;-72
2022/05/26 06:19:21;;;;;;;5.05;3.33;;;;;;;34.32;35.39;91385.44;5053549;28;20021;-71
2022/05/26 06:21:47;;;;;;;12.00;4.05;;;;;;;33.75;35.91;91390.00;5053502;28;20475;-71
2022/05/26 06:24:12;;;;;;;7.53;4.72;;;;;;;34.21;36.35;91380.25;5053466;28;20032;-72
2022/05/26 06:26:38;;;;;;;10.80;4.38;;;;;;;35.40;34.83;91387.59;5035433;28;20025;-71
2022/05/26 06:37:15;;;;;;;10.68;4.28;;;;;;;35.34;35.91;91405.94;5052504;28;20529;-70
2022/05/26 06:39:41;;;;;;;8.07;3.42;;;;;;;37.55;32.90;91398.94;5052906;28;20053;-69
2022/05/26 06:42:07;;;;;;;5.15;3.20;;;;;;;36.27;33.69;91405.16;5053168;28;20100;-71
2022/05/26 06:44:42;;;;;;;8.13;3.88;;;;;;;35.17;36.33;91401.84;5052930;28;20112;-71
2022/05/26 06:47:13;;;;;;;10.60;3.50;;;;;;;33.76;36.10;91400.59;5052920;28;20096;-69
2022/05/26 06:49:40;;;;;;;5.47;3.20;;;;;;;33.26;36.91;91407.59;5052991;28;20036;-70
2022/05/26 06:52:06;;;;;;;8.23;3.28;;;;;;;35.17;34.60;91407.38;5052905;28;20033;-70
2022/05/26 06:54:37;;;;;;;5.00;3.28;;;;;;;34.72;35.52;91405.81;5052557;28;20035;-70
2022/05/26 06:57:05;;;;;;;8.98;4.03;;;;;;;33.64;38.44;91409.66;5052682;28;20424;-70
2022/05/26 06:59:30;;;;;;;7.07;3.17;;;;;;;34.55;36.84;91415.44;5052782;28;20041;-70
2022/05/26 07:01:56;;;;;;;7.10;3.70;;;;;;;34.62;34.64;91418.00;5052642;28;20510;-70
2022/05/26 07:04:21;;;;;;;9.18;4.32;;;;;;;34.03;34.92;91411.22;5052572;28;20120;-70
2022/05/26 07:06:50;;;;;;;3.92;2.78;;;;;;;35.63;32.59;91413.22;5052442;28;20061;-70
2022/05/26 07:09:16;;;;;;;4.65;2.30;;;;;;;35.27;32.73;91417.28;5052570;28;20126;-70
2022/05/26 07:11:41;;;;;;;7.55;2.33;;;;;;;35.27;32.11;91416.53;5052693;28;20559;-70
2022/05/26 07:14:07;;;;;;;5.55;2.50;;;;;;;32.22;32.69;91421.78;5052553;28;20037;-70
2022/05/26 07:16:33;;;;;;;5.68;2.10;;;;;;;29.68;36.97;91419.69;5052298;28;20063;-70
2022/05/26 07:18:58;;;;;;;5.25;2.10;;;;;;;29.21;36.37;91420.31;5052354;28;20103;-70
2022/05/26 07:21:24;;;;;;;8.88;2.83;;;;;;;30.01;35.04;91424.25;5052304;28;20029;-70
2022/05/26 07:23:49;;;;;;;3.20;1.95;;;;;;;30.88;36.87;91424.31;5052279;28;20036;-70
2022/05/26 07:26:16;;;;;;;3.35;1.90;;;;;;;32.50;33.53;91420.31;5052015;28;20502;-71
2022/05/26 07:28:42;;;;;;;10.43;2.22;;;;;;;34.03;31.44;91422.25;5052107;28;20502;-70
2022/05/26 07:31:10;;;;;;;4.65;2.42;;;;;;;35.27;28.76;91420.06;5052316;28;20094;-70
2022/05/26 07:33:35;;;;;;;2.30;1.48;;;;;;;33.66;29.95;91429.31;5052030;28;20036;-70
2022/05/26 07:36:02;;;;;;;4.85;2.05;;;;;;;33.84;29.69;91421.25;5051684;28;20054;-70
2022/05/26 07:41:19;;;;;;;5.10;1.67;;;;;;;36.28;28.77;91424.09;5051945;28;20106;-70
2022/05/26 07:43:55;;;;;;;3.42;1.80;;;;;;;35.91;27.84;91425.22;5051780;28;20407;-71
2022/05/26 07:46:22;;;;;;;3.15;1.88;;;;;;;35.30;28.25;91419.16;5051687;28;20494;-71
2022/05/26 07:48:48;;;;;;;3.95;1.77;;;;;;;34.58;28.63;91419.34;5050840;28;20056;-71
2022/05/26 07:51:15;;;;;;;4.20;1.77;;;;;;;34.63;29.20;91424.28;5051767;28;20032;-71
2022/05/26 07:53:40;;;;;;;8.57;2.10;;;;;;;34.96;29.13;91424.75;5051729;28;20082;-72
2022/05/26 07:56:06;;;;;;;5.00;2.00;;;;;;;34.96;30.35;91438.56;5051477;28;20029;-71
2022/05/26 07:58:34;;;;;;;2.85;2.05;;;;;;;35.04;28.60;91428.81;5051633;28;20033;-69
2022/05/26 08:01:01;;;;;;;4.93;2.50;;;;;;;35.27;29.42;91422.81;5051507;28;20040;-70
2022/05/26 08:03:27;;;;;;;3.22;1.80;;;;;;;35.04;29.03;91435.13;5051593;28;20032;-70
2022/05/26 08:05:52;;;;;;;4.13;2.17;;;;;;;36.05;27.89;91437.75;5051421;28;20147;-68
2022/05/26 08:08:18;;;;;;;5.53;1.98;;;;;;;34.87;28.65;91427.44;5051437;28;20593;-71
2022/05/26 08:10:44;;;;;;;5.60;2.55;;;;;;;35.36;30.21;91431.22;5051384;28;20104;-73
2022/05/26 08:13:09;;;;;;;5.97;2.15;;;;;;;36.53;28.55;91433.44;5051438;28;20056;-73
2022/05/26 08:15:35;;;;;;;3.15;2.00;;;;;;;37.95;25.91;91432.03;5051481;28;20079;-71
2022/05/26 08:18:00;;;;;;;3.50;1.88;;;;;;;36.96;28.43;91426.91;5051359;28;20537;-71
2022/05/26 08:20:26;;;;;;;2.88;2.13;;;;;;;36.05;28.33;91426.66;5051338;28;20029;-72
2022/05/26 08:22:52;;;;;;;2.65;1.60;;;;;;;36.43;28.31;91437.41;5051196;28;20506;-70
2022/05/26 08:25:17;;;;;;;6.95;2.22;;;;;;;37.47;27.16;91429.03;5051164;28;20029;-71
2022/05/26 08:27:43;;;;;;;4.53;2.65;;;;;;;36.68;28.29;91431.63;5051205;28;20032;-71
2022/05/26 08:30:09;;;;;;;3.35;1.90;;;;;;;37.55;27.73;91438.56;5051066;28;20068;-73
2022/05/26 08:32:34;;;;;;;4.47;1.98;;;;;;;36.39;26.75;91431.25;5033187;28;20103;-73
2022/05/26 08:35:04;;;;;;;6.35;2.05;;;;;;;35.41;27.59;91433.41;5051036;28;20513;-71
2022/05/26 08:37:29;;;;;;;8.23;2.88;;;;;;;36.30;28.53;91446.63;5050845;28;20437;-70
2022/05/26 08:39:55;;;;;;;5.35;2.30;;;;;;;36.60;27.94;91447.00;5050901;28;20115;-71
2022/05/26 08:42:32;;;;;;;5.82;2.70;;;;;;;37.21;28.58;91455.56;5051108;28;20087;-72
2022/05/26 08:45:01;;;;;;;3.97;2.42;;;;;;;38.85;28.41;91438.44;5051024;28;20552;-73
2022/05/26 08:47:42;;;;;;;5.55;2.30;;;;;;;37.46;26.90;91444.16;5051025;28;20075;-74
2022/05/26 08:50:09;;;;;;;3.38;2.25;;;;;;;35.69;28.17;91436.34;5050923;28;20021;-73
2022/05/26 08:52:38;;;;;;;2.22;2.00;;;;;;;36.54;27.07;91435.75;5051074;28;20055;-75
2022/05/26 08:55:07;;;;;;;3.88;1.80;;;;;;;38.19;25.67;91432.91;5050811;28;20025;-75
2022/05/26 08:57:40;;;;;;;3.50;1.83;;;;;;;36.62;27.00;91449.34;5050897;28;20063;-75
2022/05/26 09:00:14;;;;;;;5.20;1.98;;;;;;;37.23;25.39;91447.53;5051796;28;20032;-74
2022/05/26 09:02:40;;;;;;;2.83;1.60;;;;;;;38.01;24.25;91442.03;5044999;28;20640;-73
2022/05/26 09:05:18;;;;;;;4.28;1.60;;;;;;;36.39;25.56;91447.88;5014451;28;20108;-72
2022/05/26 09:13:38;;;;;;;4.53;2.17;;;;;;;36.14;26.14;91440.56;5014424;28;19972;-73
2022/05/26 09:16:07;;;;;;;2.85;1.45;;;;;;;35.84;28.15;91442.91;5014664;28;20098;-71
2022/05/26 09:18:33;;;;;;;5.72;1.88;;;;;;;36.57;27.30;91432.06;5015042;28;20033;-73
2022/05/26 09:21:24;;;;;;;5.32;2.78;;;;;;;36.12;27.49;91445.75;5014653;28;20026;-72
2022/05/26 09:23:52;;;;;;;1.95;1.80;;;;;;;36.41;26.34;91448.97;5014658;28;20514;-72
2022/05/26 09:26:20;;;;;;;5.95;2.10;;;;;;;34.77;26.75;91446.69;5014795;28;20407;-71
2022/05/26 09:28:51;;;;;;;4.63;2.45;;;;;;;34.58;28.84;91439.44;5014107;28;20026;-73
2022/05/26 09:31:36;;;;;;;4.38;1.50;;;;;;;34.46;27.80;91446.56;5014476;28;20573;-72
2022/05/26 09:34:19;;;;;;;2.70;1.90;;;;;;;34.16;27.63;91441.59;5014460;28;20080;-70
2022/05/26 09:36:51;;;;;;;4.88;2.15;;;;;;;34.46;27.83;91452.06;5014438;28;20030;-70
2022/05/26 09:39:25;;;;;;;10.55;3.42;;;;;;;34.30;28.36;91448.66;5014068;28;20428;-70
2022/05/26 09:41:54;;;;;;;3.67;2.83;;;;;;;32.65;33.48;91451.78;5014364;28;20041;-69
2022/05/26 09:44:22;;;;;;;7.38;3.50;;;;;;;33.35;34.79;91445.59;5013874;28;20081;-69
2022/05/26 09:46:51;;;;;;;5.43;3.05;;;;;;;33.49;33.75;91442.44;5014281;28;20053;-74
2022/05/26 09:49:23;;;;;;;3.70;2.72;;;;;;;31.98;36.33;91434.94;5014114;28;20026;-73
2022/05/26 09:51:49;;;;;;;7.22;3.72;;;;;;;31.70;35.37;91437.13;5014163;28;20040;-73
2022/05/26 09:54:30;;;;;;;4.05;2.20;;;;;;;32.05;33.94;91451.31;5014012;28;20112;-74
2022/05/26 09:56:56;;;;;;;5.53;3.70;;;;;;;30.78;35.14;91437.06;5013938;28;20022;-72
2022/05/26 09:59:33;;;;;;;4.53;3.30;;;;;;;31.27;37.41;91435.31;5013875;28;20458;-71
2022/05/26 10:02:05;;;;;;;3.88;2.63;;;;;;;30.56;38.53;91439.41;5014035;28;20030;-70
2022/05/26 10:05:03;;;;;;;3.95;2.70;;;;;;;30.88;38.05;91438.81;5013855;28;20052;-70
2022/05/26 10:07:57;;;;;;;6.95;2.95;;;;;;;31.78;36.99;91449.56;4974172;28;20050;-70
2022/05/26 10:10:38;;;;;;;4.70;2.60;;;;;;;32.77;35.08;91442.81;4978179;28;20042;-69
2022/05/26 10:13:23;;;;;;;4.22;2.63;;;;;;;33.60;34.10;91440.09;5012916;28;20057;-70
2022/05/26 10:16:15;;;;;;;5.20;2.33;;;;;;;35.48;32.11;91437.13;5013049;28;20034;-70
2022/05/26 10:19:08;;;;;;;4.03;2.50;;;;;;;33.48;34.58;91437.34;5013889;28;20500;-71
2022/05/26 10:22:21;;;;;;;5.55;2.63;;;;;;;35.09;32.08;91433.75;5013734;28;20384;-71
2022/05/26 10:24:59;;;;;;;4.45;2.47;;;;;;;35.54;32.49;91425.03;5005516;28;20443;-72
2022/05/26 10:27:39;;;;;;;4.55;2.60;;;;;;;36.28;31.17;91431.66;5013602;28;20064;-71
2022/05/26 10:30:26;;;;;;;6.28;3.10;;;;;;;36.10;30.26;91437.91;5013534;28;20041;-71
2022/05/26 10:33:18;;;;;;;4.63;2.58;;;;;;;35.85;31.05;91432.59;5013675;28;20621;-70
2022/05/26 10:35:51;;;;;;;3.92;2.60;;;;;;;36.22;31.30;91439.81;5013369;28;20041;-71
2022/05/26 10:38:59;;;;;;;3.33;2.33;;;;;;;38.49;28.75;91424.69;5013327;28;20065;-71
2022/05/26 10:41:52;;;;;;;30.80;5.38;;;;;;;38.92;26.43;91423.38;4965693;28;20072;-71
2022/05/26 10:44:35;;;;;;;6.32;2.40;;;;;;;36.69;27.28;91422.06;4968753;28;20415;-71
2022/05/26 10:47:00;;;;;;;;;;;;;;;36.11;28.39;91413.75;5013789;28;20080;-71
2022/05/26 10:49:41;;;;;;;3.92;2.20;;;;;;;35.82;29.70;91417.63;5013359;28;19914;-72
2022/05/26 10:52:16;;;;;;;6.00;2.22;;;;;;;35.18;28.74;91410.91;5013252;28;20052;-72
2022/05/26 10:55:10;;;;;;;3.45;2.28;;;;;;;36.27;28.52;91419.03;4995483;28;20034;-72
2022/05/26 10:57:52;;;;;;;3.72;2.30;;;;;;;35.63;29.34;91402.13;5009838;28;20522;-72
2022/05/26 11:00:21;;;;;;;3.88;2.30;;;;;;;33.56;30.77;91398.06;5013028;28;20040;-71
2022/05/26 11:02:59;;;;;;;2.78;2.20;;;;;;;34.06;30.24;91396.53;5012850;28;20026;-71
2022/05/26 11:05:32;;;;;;;4.13;2.00;;;;;;;33.53;31.76;91393.44;5012935;28;20053;-72
2022/05/26 11:08:35;;;;;;;3.80;2.20;;;;;;;34.84;31.66;91404.97;5012819;28;20094;-71
2022/05/26 11:11:06;;;;;;;2.90;2.10;;;;;;;35.11;31.30;91392.59;5012869;28;20088;-72
2022/05/26 11:13:40;;;;;;;3.25;2.50;;;;;;;34.69;30.27;91400.38;5013082;28;20040;-72
2022/05/26 11:19:36;;;;;;;3.80;2.03;;;;;;;34.51;31.28;91393.47;5012937;28;20603;-71
2022/05/26 11:22:03;;;;;;;5.68;2.55;;;;;;;34.92;30.85;91393.69;5012709;28;20519;-71
2022/05/26 11:24:29;;;;;;;5.47;2.05;;;;;;;35.80;29.12;91391.59;5012307;28;20030;-70
2022/05/26 11:27:03;;;;;;;6.68;2.25;;;;;;;35.68;28.49;91393.25;5012590;28;20018;-71
2022/05/26 11:29:35;;;;;;;4.95;1.98;;;;;;;34.02;30.31;91390.34;5012499;28;20030;-71
2022/05/26 11:38:11;;;;;;;2.70;1.70;;;;;;;35.29;28.63;91369.81;5068915;28;20047;-71
2022/05/26 11:41:07;;;;;;;8.50;2.75;;;;;;;33.91;31.32;91368.59;5068536;28;20045;-70
2022/05/26 11:44:09;;;;;;;3.90;2.15;;;;;;;33.24;31.55;91368.66;5068552;28;20029;-70
2022/05/26 11:46:53;;;;;;;4.22;2.30;;;;;;;33.11;32.91;91378.88;5068057;28;20672;-70
2022/05/26 11:49:43;;;;;;;3.47;2.08;;;;;;;33.35;30.88;91373.88;5068352;28;20033;-70
2022/05/26 11:52:23;;;;;;;3.65;2.47;;;;;;;33.30;31.34;91371.66;5068256;28;20039;-70
2022/05/26 11:54:59;;;;;;;4.40;2.55;;;;;;;34.45;31.49;91375.16;5066979;28;20028;-70
2022/05/26 11:57:39;;;;;;;3.75;2.20;;;;;;;34.58;30.48;91372.38;5067631;28;20044;-70
2022/05/26 12:00:17;;;;;;;4.03;2.33;;;;;;;33.92;31.31;91370.16;5066265;28;20055;-70
2022/05/26 12:02:45;;;;;;;5.88;2.90;;;;;;;33.69;32.12;91364.19;5067689;28;20115;-70
2022/05/26 12:05:28;;;;;;;2.50;2.30;;;;;;;32.15;35.74;91379.44;5067440;28;20044;-69
2022/05/26 12:07:56;;;;;;;5.78;2.67;;;;;;;32.06;34.50;91376.56;5067518;28;20029;-69
2022/05/26 12:10:25;;;;;;;2.70;2.42;;;;;;;32.24;34.56;91378.06;5067726;28;20037;-70
2022/05/26 12:13:36;;;;;;;3.33;1.77;;;;;;;34.06;32.57;91374.44;5068037;28;20045;-70
2022/05/26 12:16:14;;;;;;;4.18;2.60;;;;;;;32.90;33.51;91365.72;5066532;28;20049;-69
2022/05/26 12:18:47;;;;;;;4.22;3.13;;;;;;;33.30;32.64;91366.91;5067526;28;20117;-70
2022/05/26 12:21:38;;;;;;;4.00;2.35;;;;;;;35.22;31.51;91364.56;5067223;28;20040;-70
2022/05/26 12:24:31;;;;;;;7.40;2.40;;;;;;;34.40;30.90;91367.41;5066826;28;20538;-71
2022/05/26 12:26:59;;;;;;;3.85;2.65;;;;;;;33.16;32.45;91369.31;5067602;28;20044;-71